Aviation Digital Data Service (ADDS)

Output produced by TAFs form (2242 UTC 01 February 2015)
found at http://www.aviationweather.gov/adds/tafs/
 
KMRB 011947Z 0120/0218 14005KT P6SM OVC050 
     FM012100 13004KT P6SM OVC025 
     FM012300 13005KT 4SM -PLRASN OVC025 
     FM020200 12005KT 6SM FZRA OVC025 
     FM020500 14004KT 1SM RA OVC008 
     FM020800 23006KT 1 1/2SM -RA OVC008 
     FM021400 27009KT P6SM BKN015 
     FM021500 27011KT P6SM BKN090 
     FM021700 28016G24KT P6SM SCT090